createdAt,value
2019-02-12T00:00:46.976Z,84.00
2019-02-12T00:03:18.350Z,84.00
2019-02-12T00:05:48.153Z,84.00
2019-02-12T00:08:17.915Z,84.00
2019-02-12T00:10:47.712Z,84.10
2019-02-12T00:13:17.484Z,84.10
2019-02-12T00:15:47.272Z,84.20
2019-02-12T00:18:17.063Z,84.10
2019-02-12T00:20:46.825Z,84.00
2019-02-12T00:23:16.622Z,83.80
2019-02-12T00:25:46.381Z,83.80
2019-02-12T00:28:16.167Z,83.80
2019-02-12T00:30:45.958Z,83.50
2019-02-12T00:33:15.739Z,83.50
2019-02-12T00:35:45.582Z,83.30
2019-02-12T00:38:15.369Z,83.30
2019-02-12T00:40:45.140Z,83.40
2019-02-12T00:43:14.923Z,83.20
2019-02-12T00:45:44.704Z,83.40
2019-02-12T00:48:14.478Z,83.40
2019-02-12T00:50:44.274Z,83.60
2019-02-12T00:53:14.130Z,83.60
2019-02-12T00:55:43.902Z,83.80
2019-02-12T00:58:13.694Z,84.00
2019-02-12T01:00:43.464Z,84.20
2019-02-12T01:03:13.248Z,84.00
2019-02-12T01:05:43.030Z,84.00
2019-02-12T01:08:12.799Z,83.80
2019-02-12T01:10:42.597Z,84.00
2019-02-12T01:13:12.368Z,83.80
2019-02-12T01:15:42.156Z,83.70
2019-02-12T01:18:11.942Z,83.50
2019-02-12T01:20:41.722Z,83.40
2019-02-12T01:23:11.501Z,83.20
2019-02-12T01:25:41.281Z,83.20
2019-02-12T01:28:11.118Z,83.20
2019-02-12T01:30:41.882Z,83.40
2019-02-12T01:33:11.834Z,83.70
2019-02-12T01:35:41.608Z,83.80
2019-02-12T01:38:11.404Z,83.90
2019-02-12T01:40:41.192Z,84.00
2019-02-12T01:43:10.969Z,84.30
2019-02-12T01:45:40.746Z,84.10
2019-02-12T01:48:10.522Z,84.00
2019-02-12T01:50:40.304Z,83.80
2019-02-12T01:53:10.088Z,84.10
2019-02-12T01:55:39.860Z,84.30
2019-02-12T01:58:09.654Z,84.70
2019-02-12T02:00:39.492Z,84.70
2019-02-12T02:03:09.284Z,84.60
2019-02-12T02:05:39.060Z,84.50
2019-02-12T02:08:08.842Z,84.80
2019-02-12T02:10:39.598Z,84.90
2019-02-12T02:13:09.370Z,84.90
2019-02-12T02:15:39.152Z,85.20
2019-02-12T02:18:08.949Z,85.50
2019-02-12T02:20:39.485Z,85.60
2019-02-12T02:23:09.284Z,86.40
2019-02-12T02:25:39.128Z,85.70
2019-02-12T02:28:08.918Z,86.00
2019-02-12T02:30:38.711Z,86.10
2019-02-12T02:33:08.492Z,86.20
2019-02-12T02:35:38.277Z,86.40
2019-02-12T02:38:08.057Z,86.50
2019-02-12T02:40:37.844Z,86.70
2019-02-12T02:43:07.614Z,86.90
2019-02-12T02:45:37.402Z,87.10
2019-02-12T02:48:07.179Z,87.20
2019-02-12T02:50:36.965Z,87.50
2019-02-12T02:53:06.906Z,87.60
2019-02-12T02:55:36.697Z,87.50
2019-02-12T02:58:06.469Z,87.60
2019-02-12T03:00:36.265Z,87.40
2019-02-12T03:03:06.040Z,87.50
2019-02-12T03:05:35.831Z,87.60
2019-02-12T03:08:05.611Z,87.60
2019-02-12T03:10:35.400Z,87.80
2019-02-12T03:13:05.176Z,87.70
2019-02-12T03:15:34.961Z,87.70
2019-02-12T03:18:04.734Z,87.70
2019-02-12T03:20:34.515Z,87.70
2019-02-12T03:23:04.301Z,88.40
2019-02-12T03:25:35.156Z,87.50
2019-02-12T03:28:04.931Z,87.70
2019-02-12T03:30:34.728Z,87.80
2019-02-12T03:33:04.521Z,87.90
2019-02-12T03:35:34.423Z,88.00
2019-02-12T03:38:04.295Z,88.60
2019-02-12T03:40:34.075Z,88.10
2019-02-12T03:43:04.174Z,88.00
2019-02-12T03:45:33.973Z,87.90
2019-02-12T03:48:03.731Z,88.30
2019-02-12T03:50:33.596Z,88.90
2019-02-12T03:53:03.359Z,88.90
2019-02-12T03:55:33.131Z,88.20
2019-02-12T03:58:03.003Z,87.80
2019-02-12T04:00:33.112Z,87.40
2019-02-12T04:03:04.756Z,88.10
2019-02-12T04:05:35.979Z,88.20
2019-02-12T04:08:06.109Z,88.10
2019-02-12T04:10:36.850Z,88.00
2019-02-12T04:13:06.640Z,88.20
2019-02-12T04:15:39.486Z,88.00
2019-02-12T04:18:09.271Z,88.80
2019-02-12T04:20:39.047Z,88.00
2019-02-12T04:23:08.833Z,88.10
2019-02-12T04:25:38.633Z,88.20
2019-02-12T04:28:08.407Z,88.30
2019-02-12T04:30:38.186Z,88.40
2019-02-12T04:33:07.979Z,88.60
2019-02-12T04:35:37.789Z,88.60
2019-02-12T04:38:07.586Z,88.70
2019-02-12T04:40:37.356Z,88.90
2019-02-12T04:43:07.140Z,89.00
2019-02-12T04:45:36.929Z,89.00
2019-02-12T04:48:06.699Z,89.20
2019-02-12T04:50:36.492Z,89.20
2019-02-12T04:53:06.272Z,89.20
2019-02-12T04:55:36.064Z,89.20
2019-02-12T04:58:06.460Z,89.10
2019-02-12T05:00:36.657Z,89.00
2019-02-12T05:03:06.423Z,89.30
2019-02-12T05:05:36.233Z,89.00
2019-02-12T05:08:06.000Z,88.80
2019-02-12T05:10:39.814Z,88.70
2019-02-12T05:13:09.603Z,88.60
2019-02-12T05:15:39.388Z,88.70
2019-02-12T05:18:09.165Z,88.80
2019-02-12T05:20:38.971Z,89.00
2019-02-12T05:23:08.739Z,89.00
2019-02-12T05:25:38.888Z,89.20
2019-02-12T05:28:08.674Z,89.60
2019-02-12T05:30:38.449Z,89.50
2019-02-12T05:33:08.220Z,89.80
2019-02-12T05:35:38.011Z,89.60
2019-02-12T05:38:07.783Z,89.90
2019-02-12T05:40:37.560Z,90.00
2019-02-12T05:43:07.349Z,90.30
2019-02-12T05:45:37.119Z,90.00
2019-02-12T05:48:06.914Z,89.90
2019-02-12T05:50:36.688Z,89.80
2019-02-12T05:53:06.815Z,89.70
2019-02-12T05:55:36.653Z,89.60
2019-02-12T05:58:06.430Z,89.70
2019-02-12T06:00:36.222Z,89.50
2019-02-12T06:03:06.003Z,90.00
2019-02-12T06:05:35.791Z,89.80
2019-02-12T06:08:05.576Z,89.70
2019-02-12T06:10:36.327Z,89.50
2019-02-12T06:13:06.183Z,89.40
2019-02-12T06:15:35.991Z,89.60
2019-02-12T06:18:05.823Z,89.20
2019-02-12T06:20:35.618Z,89.60
2019-02-12T06:23:05.389Z,89.10
2019-02-12T06:25:35.183Z,89.00
2019-02-12T06:28:04.962Z,89.10
2019-02-12T06:30:34.738Z,89.10
2019-02-12T06:33:07.659Z,89.00
2019-02-12T06:35:36.008Z,89.10
2019-02-12T06:38:05.791Z,89.10
2019-02-12T06:40:35.587Z,88.90
2019-02-12T06:43:05.367Z,88.80
2019-02-12T06:45:35.163Z,89.00
2019-02-12T06:48:05.024Z,89.00
2019-02-12T06:50:34.847Z,90.00
2019-02-12T06:53:12.278Z,89.70
2019-02-12T06:55:36.147Z,89.40
2019-02-12T06:58:05.942Z,89.00
2019-02-12T07:00:35.735Z,88.60
2019-02-12T07:03:20.435Z,88.80
2019-02-12T07:05:56.220Z,88.30
2019-02-12T07:08:34.663Z,88.20
2019-02-12T07:11:13.359Z,88.00
2019-02-12T07:13:46.228Z,88.00
2019-02-12T07:16:19.079Z,87.70
2019-02-12T07:19:08.545Z,87.60
2019-02-12T07:21:47.584Z,87.50
2019-02-12T07:24:20.463Z,87.20
2019-02-12T07:27:17.676Z,87.10
2019-02-12T07:30:13.047Z,87.20
2019-02-12T07:33:13.149Z,86.90
2019-02-12T07:35:48.819Z,86.80
2019-02-12T07:38:33.025Z,86.80
2019-02-12T07:41:08.567Z,86.50
2019-02-12T07:43:53.751Z,86.80
2019-02-12T07:46:32.819Z,86.30
2019-02-12T07:49:20.037Z,86.00
2019-02-12T07:52:26.545Z,85.50
2019-02-12T07:55:15.993Z,85.10
2019-02-12T07:58:03.674Z,84.90
2019-02-12T08:00:53.086Z,85.20
2019-02-12T08:03:59.272Z,85.00
2019-02-12T08:07:05.353Z,84.50
2019-02-12T08:10:03.592Z,84.40
2019-02-12T08:13:00.560Z,83.80
2019-02-12T08:15:54.516Z,83.60
2019-02-12T08:18:30.459Z,83.50
2019-02-12T08:21:23.702Z,83.70
2019-02-12T08:23:56.580Z,83.70
2019-02-12T08:26:35.396Z,83.40
2019-02-12T08:29:34.898Z,83.30
2019-02-12T08:32:27.413Z,83.10
2019-02-12T08:35:28.476Z,82.80
2019-02-12T08:38:04.403Z,82.30
2019-02-12T08:40:54.076Z,82.30
2019-02-12T08:43:35.277Z,82.40
2019-02-12T08:46:25.969Z,82.50
2019-02-12T08:49:01.617Z,82.50
2019-02-12T08:51:42.684Z,82.60
2019-02-12T08:54:47.408Z,82.40
2019-02-12T08:57:23.029Z,82.20
2019-02-12T09:00:14.086Z,82.20
2019-02-12T09:02:52.564Z,82.00
2019-02-12T09:05:37.266Z,81.80
2019-02-12T09:08:18.380Z,81.60
2019-02-12T09:10:54.318Z,81.50
2019-02-12T09:13:38.875Z,81.00
2019-02-12T09:16:17.564Z,80.90
2019-02-12T09:19:02.496Z,81.20
2019-02-12T09:22:08.664Z,80.60
2019-02-12T09:25:14.918Z,80.70
2019-02-12T09:28:04.048Z,80.70
2019-02-12T09:30:36.902Z,80.30
2019-02-12T09:33:24.334Z,80.50
2019-02-12T09:36:21.195Z,81.30
2019-02-12T09:38:56.860Z,80.60
2019-02-12T09:41:29.722Z,80.30
2019-02-12T09:44:08.552Z,79.80
2019-02-12T09:47:04.136Z,80.20
2019-02-12T09:49:57.923Z,80.20
2019-02-12T09:52:56.280Z,80.20
2019-02-12T09:55:38.113Z,80.60
2019-02-12T09:58:25.602Z,80.40
2019-02-12T10:01:17.932Z,80.50
2019-02-12T10:04:07.224Z,79.30
2019-02-12T10:06:41.063Z,79.80
2019-02-12T10:09:14.030Z,79.60
2019-02-12T10:12:09.415Z,79.30
2019-02-12T10:14:53.704Z,78.20
2019-02-12T10:17:29.358Z,78.60
2019-02-12T10:20:08.184Z,77.20
2019-02-12T10:22:41.062Z,77.10
2019-02-12T10:25:14.420Z,77.10
2019-02-12T10:28:15.946Z,77.20
2019-02-12T10:30:51.535Z,77.10
2019-02-12T10:33:21.384Z,76.30
2019-02-12T10:35:51.217Z,76.80
2019-02-12T10:38:20.979Z,76.90
2019-02-12T10:40:50.799Z,77.20
2019-02-12T10:43:20.571Z,77.30
2019-02-12T10:45:50.368Z,77.40
2019-02-12T10:48:20.223Z,78.10
2019-02-12T10:50:49.999Z,77.30
2019-02-12T10:53:19.775Z,77.10
2019-02-12T10:55:49.574Z,76.80
2019-02-12T10:58:19.348Z,77.00
2019-02-12T11:00:49.773Z,76.70
2019-02-12T11:03:19.565Z,76.50
2019-02-12T11:05:49.339Z,76.30
2019-02-12T11:08:19.111Z,76.90
2019-02-12T11:10:48.989Z,76.90
2019-02-12T11:13:18.782Z,76.50
2019-02-12T11:15:48.581Z,76.60
2019-02-12T11:18:18.377Z,76.20
2019-02-12T11:20:48.154Z,76.40
2019-02-12T11:23:17.944Z,76.60
2019-02-12T11:25:47.736Z,76.40
2019-02-12T11:28:17.522Z,77.10
2019-02-12T11:30:48.456Z,77.40
2019-02-12T11:33:18.241Z,77.20
2019-02-12T11:35:49.104Z,76.90
2019-02-12T11:38:18.875Z,76.20
2019-02-12T11:40:48.672Z,76.20
2019-02-12T11:43:18.458Z,75.80
2019-02-12T11:45:48.233Z,74.80
2019-02-12T11:48:18.063Z,75.40
2019-02-12T11:50:47.814Z,75.40
2019-02-12T11:53:17.602Z,75.70
2019-02-12T11:55:47.393Z,75.80
2019-02-12T11:58:17.173Z,75.40
2019-02-12T12:00:48.602Z,74.90
2019-02-12T12:03:18.387Z,74.20
2019-02-12T12:05:48.177Z,74.10
2019-02-12T12:08:17.967Z,73.80
2019-02-12T12:10:47.745Z,74.00
2019-02-12T12:13:17.562Z,72.70
2019-02-12T12:15:47.338Z,73.70
2019-02-12T12:18:17.144Z,73.50
2019-02-12T12:20:46.925Z,72.70
2019-02-12T12:23:16.695Z,72.90
2019-02-12T12:25:46.492Z,73.40
2019-02-12T12:28:16.267Z,72.60
2019-02-12T12:30:46.048Z,72.70
2019-02-12T12:33:15.853Z,72.80
2019-02-12T12:35:45.633Z,72.80
2019-02-12T12:38:15.535Z,73.10
2019-02-12T12:40:45.675Z,72.10
2019-02-12T12:43:15.483Z,72.80
2019-02-12T12:45:45.264Z,72.70
2019-02-12T12:48:15.062Z,72.80
2019-02-12T12:50:44.852Z,72.80
2019-02-12T12:53:14.717Z,72.60
2019-02-12T12:55:44.516Z,72.40
2019-02-12T12:58:14.307Z,72.50
2019-02-12T13:00:44.092Z,71.20
2019-02-12T13:03:13.912Z,70.90
2019-02-12T13:05:43.685Z,69.80
2019-02-12T13:08:13.472Z,68.80
2019-02-12T13:10:44.624Z,68.00
2019-02-12T13:13:14.624Z,67.00
2019-02-12T13:15:44.477Z,66.60
2019-02-12T13:18:14.260Z,66.20
2019-02-12T13:20:44.047Z,66.70
2019-02-12T13:23:13.834Z,66.60
2019-02-12T13:25:43.620Z,67.00
2019-02-12T13:28:13.415Z,67.10
2019-02-12T13:30:43.195Z,67.60
2019-02-12T13:33:13.024Z,68.10
2019-02-12T13:35:42.827Z,68.00
2019-02-12T13:38:12.604Z,67.30
2019-02-12T13:40:42.439Z,67.00
2019-02-12T13:43:12.245Z,66.10
2019-02-12T13:45:42.024Z,65.20
2019-02-12T13:48:11.824Z,65.30
2019-02-12T13:50:41.613Z,63.60
2019-02-12T13:53:11.811Z,63.00
2019-02-12T13:55:41.605Z,62.40
2019-02-12T13:58:11.379Z,63.00
2019-02-12T14:00:41.163Z,61.30
2019-02-12T14:03:10.959Z,61.50
2019-02-12T14:05:42.113Z,60.20
2019-02-12T14:08:12.948Z,60.20
2019-02-12T14:10:42.739Z,60.20
2019-02-12T14:13:12.535Z,60.40
2019-02-12T14:15:42.325Z,60.10
2019-02-12T14:18:12.427Z,59.90
2019-02-12T14:20:42.231Z,60.00
2019-02-12T14:23:12.007Z,60.10
2019-02-12T14:25:41.808Z,59.80
2019-02-12T14:28:11.585Z,59.70
2019-02-12T14:30:41.372Z,59.40
2019-02-12T14:33:11.156Z,59.90
2019-02-12T14:35:40.938Z,60.30
2019-02-12T14:38:10.720Z,60.40
2019-02-12T14:40:40.534Z,60.00
2019-02-12T14:43:14.192Z,60.40
2019-02-12T14:45:41.832Z,60.00
2019-02-12T14:48:11.615Z,60.50
2019-02-12T14:50:41.401Z,60.80
2019-02-12T14:53:11.190Z,61.40
2019-02-12T14:55:40.967Z,62.00
2019-02-12T14:58:10.755Z,62.10
2019-02-12T15:00:40.668Z,62.20
2019-02-12T15:03:10.450Z,62.20
2019-02-12T15:05:40.238Z,63.00
2019-02-12T15:08:10.014Z,63.20
2019-02-12T15:10:39.793Z,63.50
2019-02-12T15:13:09.576Z,63.70
2019-02-12T15:15:39.354Z,64.30
2019-02-12T15:18:10.204Z,64.90
2019-02-12T15:20:39.996Z,65.50
2019-02-12T15:23:09.761Z,66.00
2019-02-12T15:25:41.974Z,66.20
2019-02-12T15:28:11.097Z,66.40
2019-02-12T15:30:40.878Z,66.80
2019-02-12T15:33:10.712Z,66.30
2019-02-12T15:35:40.500Z,66.20
2019-02-12T15:38:10.266Z,66.00
2019-02-12T15:40:40.057Z,66.10
2019-02-12T15:43:09.838Z,66.10
2019-02-12T15:45:39.622Z,66.50
2019-02-12T15:48:09.393Z,67.00
2019-02-12T15:50:39.191Z,68.00
2019-02-12T15:53:08.982Z,69.00
2019-02-12T15:55:42.356Z,70.30
2019-02-12T15:58:10.216Z,69.80
2019-02-12T16:00:41.398Z,70.00
2019-02-12T16:03:11.643Z,70.30
2019-02-12T16:05:41.421Z,70.50
2019-02-12T16:08:11.200Z,71.00
2019-02-12T16:10:41.946Z,71.10
2019-02-12T16:13:13.539Z,71.50
2019-02-12T16:15:45.547Z,71.90
2019-02-12T16:18:15.049Z,72.10
2019-02-12T16:20:44.840Z,72.40
2019-02-12T16:23:14.620Z,72.50
2019-02-12T16:25:44.407Z,72.70
2019-02-12T16:28:14.254Z,73.00
2019-02-12T16:30:44.050Z,74.00
2019-02-12T16:33:13.829Z,74.20
2019-02-12T16:35:43.624Z,74.20
2019-02-12T16:38:13.408Z,74.30
2019-02-12T16:40:43.180Z,74.60
2019-02-12T16:43:12.966Z,75.00
2019-02-12T16:45:54.892Z,74.50
2019-02-12T16:48:24.670Z,74.90
2019-02-12T16:50:54.524Z,75.20
2019-02-12T16:53:25.282Z,74.80
2019-02-12T16:55:55.052Z,75.00
2019-02-12T16:58:24.849Z,75.20
2019-02-12T17:00:54.611Z,76.00
2019-02-12T17:03:24.400Z,76.00
2019-02-12T17:05:54.177Z,75.90
2019-02-12T17:08:23.969Z,75.90
2019-02-12T17:10:53.763Z,76.10
2019-02-12T17:13:23.546Z,76.10
2019-02-12T17:15:53.314Z,76.20
2019-02-12T17:18:23.116Z,76.40
2019-02-12T17:20:52.888Z,76.50
2019-02-12T17:23:22.682Z,76.60
2019-02-12T17:25:52.448Z,76.80
2019-02-12T17:28:22.251Z,76.90
2019-02-12T17:30:53.090Z,76.90
2019-02-12T17:33:22.882Z,77.00
2019-02-12T17:35:52.660Z,77.10
2019-02-12T17:38:22.438Z,77.20
2019-02-12T17:40:52.219Z,77.10
2019-02-12T17:43:22.024Z,77.40
2019-02-12T17:45:51.834Z,77.60
2019-02-12T17:48:22.590Z,77.40
2019-02-12T17:50:52.372Z,77.40
2019-02-12T17:53:23.819Z,77.40
2019-02-12T17:55:53.588Z,77.50
2019-02-12T17:58:24.238Z,77.50
2019-02-12T18:00:54.015Z,77.80
2019-02-12T18:03:23.799Z,77.90
2019-02-12T18:05:53.585Z,78.30
2019-02-12T18:08:23.365Z,78.40
2019-02-12T18:10:53.143Z,78.40
2019-02-12T18:13:23.306Z,79.00
2019-02-12T18:15:53.278Z,78.80
2019-02-12T18:18:23.061Z,78.60
2019-02-12T18:20:52.850Z,78.50
2019-02-12T18:23:22.624Z,78.40
2019-02-12T18:25:52.485Z,78.20
2019-02-12T18:28:22.250Z,78.20
2019-02-12T18:30:52.045Z,78.20
2019-02-12T18:33:21.829Z,78.20
2019-02-12T18:35:51.623Z,78.40
2019-02-12T18:38:21.394Z,78.10
2019-02-12T18:40:51.188Z,78.10
2019-02-12T18:43:20.950Z,78.10
2019-02-12T18:45:50.731Z,78.30
2019-02-12T18:48:20.502Z,78.00
2019-02-12T18:50:50.282Z,78.00
2019-02-12T18:53:20.059Z,77.70
2019-02-12T18:55:49.851Z,78.00
2019-02-12T18:58:19.632Z,78.00
2019-02-12T19:00:49.433Z,78.20
2019-02-12T19:03:19.206Z,78.20
2019-02-12T19:05:48.998Z,78.00
2019-02-12T19:08:18.777Z,78.10
2019-02-12T19:10:49.642Z,77.90
2019-02-12T19:13:19.407Z,78.30
2019-02-12T19:15:49.199Z,78.10
2019-02-12T19:18:22.130Z,78.30
2019-02-12T19:20:51.902Z,78.30
2019-02-12T19:23:21.682Z,78.40
2019-02-12T19:25:51.489Z,78.40
2019-02-12T19:28:21.276Z,78.40
2019-02-12T19:30:51.044Z,78.50
2019-02-12T19:33:20.863Z,78.50
2019-02-12T19:35:50.695Z,78.80
2019-02-12T19:38:20.486Z,79.00
2019-02-12T19:40:50.262Z,79.20
2019-02-12T19:43:20.053Z,79.60
2019-02-12T19:45:49.828Z,79.70
2019-02-12T19:48:25.816Z,79.40
2019-02-12T19:50:55.597Z,79.40
2019-02-12T19:53:25.407Z,79.40
2019-02-12T19:55:55.174Z,79.40
2019-02-12T19:58:25.930Z,79.40
2019-02-12T20:00:55.703Z,79.40
2019-02-12T20:03:25.568Z,79.40
2019-02-12T20:05:55.384Z,79.30
2019-02-12T20:08:25.131Z,79.20
2019-02-12T20:10:55.062Z,79.30
2019-02-12T20:13:24.844Z,79.30
2019-02-12T20:15:54.636Z,79.40
2019-02-12T20:18:24.408Z,80.10
2019-02-12T20:20:54.188Z,79.50
2019-02-12T20:23:23.990Z,79.50
2019-02-12T20:25:53.874Z,79.50
2019-02-12T20:28:23.651Z,79.50
2019-02-12T20:30:53.431Z,79.70
2019-02-12T20:33:23.206Z,79.60
2019-02-12T20:35:53.063Z,79.50
2019-02-12T20:38:22.838Z,79.50
2019-02-12T20:40:52.642Z,79.70
2019-02-12T20:43:22.403Z,79.70
2019-02-12T20:45:52.183Z,79.70
2019-02-12T20:48:21.950Z,79.70
2019-02-12T20:50:51.748Z,79.80
2019-02-12T20:53:21.620Z,80.00
2019-02-12T20:55:51.395Z,79.90
2019-02-12T20:58:21.187Z,79.90
2019-02-12T21:00:50.983Z,80.00
2019-02-12T21:03:20.763Z,80.00
2019-02-12T21:05:50.543Z,80.10
2019-02-12T21:08:20.411Z,80.00
2019-02-12T21:10:50.184Z,79.90
2019-02-12T21:13:19.969Z,80.00
2019-02-12T21:15:49.734Z,80.20
2019-02-12T21:18:19.529Z,80.00
2019-02-12T21:20:49.294Z,80.00
2019-02-12T21:23:19.087Z,80.30
2019-02-12T21:25:48.864Z,79.90
2019-02-12T21:28:18.650Z,79.80
2019-02-12T21:30:48.423Z,79.80
2019-02-12T21:33:18.712Z,79.70
2019-02-12T21:35:48.575Z,80.00
2019-02-12T21:38:18.738Z,80.00
2019-02-12T21:40:48.545Z,79.90
2019-02-12T21:43:18.345Z,79.80
2019-02-12T21:45:48.115Z,79.80
2019-02-12T21:48:17.944Z,79.90
2019-02-12T21:50:47.736Z,80.00
2019-02-12T21:53:17.546Z,79.80
2019-02-12T21:55:47.331Z,79.90
2019-02-12T21:58:17.116Z,80.10
2019-02-12T22:00:46.899Z,80.30
2019-02-12T22:03:16.703Z,80.20
2019-02-12T22:05:46.475Z,80.10
2019-02-12T22:08:16.267Z,80.30
2019-02-12T22:10:46.630Z,80.30
2019-02-12T22:13:16.504Z,80.30
2019-02-12T22:15:46.285Z,80.30
2019-02-12T22:18:16.060Z,80.20
2019-02-12T22:20:45.846Z,80.10
2019-02-12T22:23:15.622Z,80.10
2019-02-12T22:25:45.415Z,80.30
2019-02-12T22:28:15.219Z,80.30
2019-02-12T22:30:44.982Z,80.20
2019-02-12T22:33:14.847Z,80.30
2019-02-12T22:35:44.628Z,80.20
2019-02-12T22:38:14.397Z,80.40
2019-02-12T22:40:44.211Z,80.40
2019-02-12T22:43:13.987Z,80.40
2019-02-12T22:45:43.771Z,80.20
2019-02-12T22:48:13.615Z,80.50
2019-02-12T22:50:43.439Z,80.50
2019-02-12T22:53:13.203Z,80.60
2019-02-12T22:55:42.995Z,80.70
2019-02-12T22:58:12.773Z,80.70
2019-02-12T23:00:47.138Z,80.70
2019-02-12T23:03:17.083Z,80.90
2019-02-12T23:05:47.072Z,80.90
2019-02-12T23:08:16.921Z,81.00
2019-02-12T23:10:46.708Z,81.00
2019-02-12T23:13:16.479Z,81.20
2019-02-12T23:15:46.263Z,81.00
2019-02-12T23:18:16.064Z,80.90
2019-02-12T23:20:45.843Z,81.00
2019-02-12T23:23:15.620Z,81.00
2019-02-12T23:25:45.399Z,81.20
2019-02-12T23:28:15.251Z,81.20
2019-02-12T23:30:45.051Z,81.50
2019-02-12T23:33:14.875Z,81.70
2019-02-12T23:35:44.662Z,81.80
2019-02-12T23:38:14.439Z,81.90
2019-02-12T23:40:44.214Z,81.80
2019-02-12T23:43:14.007Z,81.70
2019-02-12T23:45:43.806Z,81.70
2019-02-12T23:48:13.589Z,81.80
2019-02-12T23:50:43.357Z,81.70
2019-02-12T23:53:13.139Z,81.70
2019-02-12T23:55:42.911Z,81.50
2019-02-12T23:58:12.779Z,81.60
